createdAt,value
2022-12-02T00:01:53.548Z,100977.31
2022-12-02T00:05:23.940Z,100976.53
2022-12-02T00:08:31.042Z,100976.13
2022-12-02T00:11:34.047Z,100983.22
2022-12-02T00:14:37.024Z,100976.72
2022-12-02T00:17:41.308Z,100968.69
2022-12-02T00:20:44.853Z,100965.91
2022-12-02T00:23:47.828Z,100969.91
2022-12-02T00:26:50.440Z,100968.59
2022-12-02T00:29:53.275Z,100968.84
2022-12-02T00:32:55.900Z,100968.66
2022-12-02T00:35:59.046Z,100967.12
2022-12-02T00:39:04.053Z,100969.72
2022-12-02T00:42:06.930Z,100974.78
2022-12-02T00:45:51.900Z,100973.25
2022-12-02T00:48:54.869Z,100970.66
2022-12-02T00:51:57.446Z,100972.09
2022-12-02T00:55:00.668Z,100970.13
2022-12-02T00:58:04.319Z,100970.34
2022-12-02T01:01:07.358Z,100958.97
2022-12-02T01:04:12.699Z,100965.22
2022-12-02T01:07:15.790Z,100961.78
2022-12-02T01:10:18.486Z,100972.44
2022-12-02T01:13:24.015Z,100970.19
2022-12-02T01:16:26.624Z,100968.56
2022-12-02T01:19:30.393Z,100966.47
2022-12-02T01:22:33.634Z,100960.00
2022-12-02T01:25:36.917Z,100959.28
2022-12-02T01:28:41.037Z,100949.78
2022-12-02T01:31:44.076Z,100957.03
2022-12-02T01:34:47.105Z,100959.13
2022-12-02T01:37:50.299Z,100941.31
2022-12-02T01:40:53.696Z,100940.19
2022-12-02T01:43:56.682Z,100943.53
2022-12-02T01:47:00.497Z,100933.72
2022-12-02T01:50:05.109Z,100940.09
2022-12-02T01:53:07.805Z,100936.31
2022-12-02T01:56:11.448Z,100940.19
2022-12-02T01:59:16.940Z,100934.06
2022-12-02T02:02:39.113Z,100940.50
2022-12-02T02:05:42.145Z,100937.94
2022-12-02T02:08:44.945Z,100938.06
2022-12-02T02:11:48.019Z,100934.34
2022-12-02T02:14:51.501Z,100940.19
2022-12-02T02:18:02.088Z,100926.50
2022-12-02T02:21:13.970Z,100930.75
2022-12-02T02:24:17.042Z,100939.22
2022-12-02T02:27:22.034Z,100938.44
2022-12-02T02:30:27.374Z,100931.47
2022-12-02T02:33:33.765Z,100932.00
2022-12-02T02:36:37.547Z,100931.16
2022-12-02T02:39:42.639Z,100929.28
2022-12-02T02:42:53.526Z,100936.50
2022-12-02T02:45:59.179Z,100937.03
2022-12-02T02:49:02.344Z,100931.16
2022-12-02T02:52:05.216Z,100932.13
2022-12-02T02:55:09.598Z,100922.84
2022-12-02T02:58:20.259Z,100923.94
2022-12-02T03:01:29.341Z,100926.16
2022-12-02T03:04:32.982Z,100922.84
2022-12-02T03:07:36.515Z,100923.97
2022-12-02T03:10:40.817Z,100927.97
2022-12-02T03:13:46.688Z,100922.69
2022-12-02T03:16:50.419Z,100920.53
2022-12-02T03:19:53.221Z,100925.81
2022-12-02T03:22:56.110Z,100932.28
2022-12-02T03:26:00.148Z,100927.66
2022-12-02T03:29:05.727Z,100924.41
2022-12-02T03:32:10.945Z,100924.56
2022-12-02T03:35:14.482Z,100922.13
2022-12-02T03:38:18.098Z,100921.06
2022-12-02T03:41:21.307Z,100925.28
2022-12-02T03:44:23.979Z,100914.31
2022-12-02T03:47:28.582Z,100911.72
2022-12-02T03:50:31.270Z,100910.88
2022-12-02T03:53:35.297Z,100908.63
2022-12-02T03:56:42.378Z,100908.66
2022-12-02T03:59:45.209Z,100903.25
2022-12-02T04:02:47.848Z,100906.28
2022-12-02T04:05:50.764Z,100901.25
2022-12-02T04:08:53.406Z,100904.91
2022-12-02T04:11:56.335Z,100919.06
2022-12-02T04:14:58.924Z,100902.97
2022-12-02T04:18:01.803Z,100913.00
2022-12-02T04:21:05.538Z,100917.91
2022-12-02T04:24:08.817Z,100916.22
2022-12-02T04:27:11.461Z,100920.75
2022-12-02T04:30:14.384Z,100927.75
2022-12-02T04:33:16.957Z,100920.41
2022-12-02T04:36:19.829Z,100922.31
2022-12-02T04:39:22.569Z,100922.31
2022-12-02T04:42:25.684Z,100922.56
2022-12-02T04:45:28.989Z,100921.91
2022-12-02T04:48:31.888Z,100923.34
2022-12-02T04:51:34.525Z,100920.69
2022-12-02T04:54:37.425Z,100926.59
2022-12-02T04:57:40.089Z,100931.66
2022-12-02T05:00:43.177Z,100928.41
2022-12-02T05:03:45.793Z,100925.88
2022-12-02T05:06:48.689Z,100930.44
2022-12-02T05:09:51.346Z,100925.75
2022-12-02T05:12:54.196Z,100934.00
2022-12-02T05:15:56.878Z,100936.22
2022-12-02T05:18:59.840Z,100939.13
2022-12-02T05:22:03.524Z,100932.88
2022-12-02T05:25:08.337Z,100936.78
2022-12-02T05:28:11.004Z,100938.59
2022-12-02T05:31:14.658Z,100942.69
2022-12-02T05:34:17.402Z,100934.38
2022-12-02T05:37:20.439Z,100932.37
2022-12-02T05:40:23.058Z,100929.63
2022-12-02T05:43:27.040Z,100934.00
2022-12-02T05:46:30.494Z,100931.41
2022-12-02T05:49:35.269Z,100933.66
2022-12-02T05:52:38.673Z,100939.47
2022-12-02T05:55:41.588Z,100941.69
2022-12-02T05:58:45.761Z,100938.81
2022-12-02T06:01:51.521Z,100942.22
2022-12-02T06:04:56.210Z,100937.94
2022-12-02T06:08:01.921Z,100940.66
2022-12-02T06:11:26.233Z,100944.72
2022-12-02T06:14:32.812Z,100950.25
2022-12-02T06:17:35.621Z,100949.75
2022-12-02T06:20:38.288Z,100947.47
2022-12-02T06:23:46.136Z,100943.59
2022-12-02T06:26:51.564Z,100955.59
2022-12-02T06:30:01.079Z,100948.72
2022-12-02T06:33:03.719Z,100960.62
2022-12-02T06:36:27.859Z,100948.78
2022-12-02T06:39:30.572Z,100951.53
2022-12-02T06:42:35.899Z,100952.94
2022-12-02T06:45:38.576Z,100961.34
2022-12-02T06:48:41.767Z,100955.78
2022-12-02T06:51:44.442Z,100964.03
2022-12-02T06:54:48.361Z,100953.88
2022-12-02T06:57:51.064Z,100957.34
2022-12-02T07:00:54.714Z,100966.88
2022-12-02T07:04:03.400Z,100964.34
2022-12-02T07:07:16.738Z,100966.66
2022-12-02T07:10:29.271Z,100957.62
2022-12-02T07:13:32.079Z,100962.37
2022-12-02T07:16:36.644Z,100966.50
2022-12-02T07:19:42.329Z,100964.53
2022-12-02T07:22:54.824Z,100964.53
2022-12-02T07:26:00.932Z,100966.22
2022-12-02T07:29:15.239Z,100973.97
2022-12-02T07:32:19.090Z,100972.41
2022-12-02T07:35:23.061Z,100975.13
2022-12-02T07:38:49.872Z,100973.50
2022-12-02T07:41:48.617Z,100981.41
2022-12-02T07:44:52.092Z,100983.09
2022-12-02T07:47:55.521Z,100977.62
2022-12-02T07:50:58.513Z,100980.69
2022-12-02T07:54:01.156Z,100986.59
2022-12-02T07:57:04.136Z,100983.25
2022-12-02T08:00:08.720Z,100990.81
2022-12-02T08:03:14.525Z,100990.75
2022-12-02T08:06:17.620Z,100987.94
2022-12-02T08:09:20.172Z,100992.25
2022-12-02T08:12:23.245Z,100991.12
2022-12-02T08:15:25.807Z,100991.06
2022-12-02T08:18:29.209Z,100995.34
2022-12-02T08:21:32.833Z,100995.63
2022-12-02T08:24:41.543Z,100999.19
2022-12-02T08:27:45.539Z,100999.97
2022-12-02T08:30:48.816Z,100997.56
2022-12-02T08:33:52.393Z,100996.13
2022-12-02T08:36:55.568Z,100989.87
2022-12-02T08:39:58.141Z,100996.97
2022-12-02T08:43:02.560Z,100987.84
2022-12-02T08:46:06.861Z,100995.78
2022-12-02T08:49:09.903Z,100991.34
2022-12-02T08:52:12.579Z,101000.06
2022-12-02T08:55:15.573Z,101006.72
2022-12-02T08:58:18.403Z,101007.16
2022-12-02T09:01:24.243Z,100997.16
2022-12-02T09:04:27.749Z,100993.66
2022-12-02T09:07:30.763Z,100996.87
2022-12-02T09:10:33.594Z,100995.38
2022-12-02T09:13:36.511Z,100991.12
2022-12-02T09:16:39.202Z,100992.06
2022-12-02T09:19:42.022Z,100990.38
2022-12-02T09:22:47.829Z,100987.50
2022-12-02T09:25:50.782Z,100982.41
2022-12-02T09:28:53.345Z,100987.59
2022-12-02T09:31:56.262Z,100991.34
2022-12-02T09:34:58.881Z,100996.63
2022-12-02T09:38:01.783Z,100989.87
2022-12-02T09:41:04.844Z,100995.44
2022-12-02T09:44:08.060Z,100992.91
2022-12-02T09:47:11.786Z,100987.38
2022-12-02T09:50:15.427Z,100990.91
2022-12-02T09:53:20.149Z,100989.41
2022-12-02T09:56:23.440Z,100988.22
2022-12-02T10:02:50.474Z,100992.69
2022-12-02T10:05:53.791Z,100996.53
2022-12-02T10:08:58.612Z,100991.97
2022-12-02T10:12:01.567Z,100993.47
2022-12-02T10:15:04.803Z,100988.75
2022-12-02T10:18:16.248Z,100985.19
2022-12-02T10:21:18.964Z,100987.72
2022-12-02T10:24:38.192Z,100991.41
2022-12-02T10:27:41.271Z,100988.84
2022-12-02T10:30:57.255Z,100986.50
2022-12-02T10:34:03.716Z,100983.03
2022-12-02T10:37:26.005Z,100988.63
2022-12-02T10:40:28.742Z,100992.56
2022-12-02T10:43:31.714Z,100984.97
2022-12-02T10:46:35.569Z,100980.16
2022-12-02T10:49:45.673Z,100976.44
2022-12-02T10:52:49.469Z,100980.09
2022-12-02T10:55:53.052Z,100981.03
2022-12-02T10:58:56.674Z,100980.53
2022-12-02T11:02:01.840Z,100971.50
2022-12-02T11:05:24.851Z,100977.19
2022-12-02T11:08:29.587Z,100975.78
2022-12-02T11:11:32.244Z,100979.63
2022-12-02T11:14:38.309Z,100979.09
2022-12-02T11:17:51.824Z,100966.84
2022-12-02T11:20:55.652Z,100969.88
2022-12-02T11:24:23.321Z,100971.63
2022-12-02T11:27:27.455Z,100963.63
2022-12-02T11:30:37.949Z,100961.72
2022-12-02T11:33:49.934Z,100957.12
2022-12-02T11:37:26.500Z,100958.66
2022-12-02T11:40:32.441Z,100961.94
2022-12-02T11:44:09.553Z,100962.22
2022-12-02T11:47:26.483Z,100962.50
2022-12-02T11:50:41.832Z,100962.22
2022-12-02T11:53:51.418Z,100968.31
2022-12-02T11:56:54.544Z,100964.62
2022-12-02T11:59:58.283Z,100957.03
2022-12-02T12:03:18.148Z,100958.44
2022-12-02T12:06:23.732Z,100964.53
2022-12-02T12:09:31.767Z,100967.72
2022-12-02T12:12:34.669Z,100963.00
2022-12-02T12:15:49.770Z,100967.66
2022-12-02T12:18:53.136Z,100963.00
2022-12-02T12:21:57.509Z,100964.62
2022-12-02T12:25:38.352Z,100963.50
2022-12-02T12:28:40.989Z,100961.97
2022-12-02T12:31:45.715Z,100965.19
2022-12-02T12:34:49.870Z,100962.59
2022-12-02T12:37:52.950Z,100960.16
2022-12-02T12:40:55.694Z,100962.69
2022-12-02T12:43:58.900Z,100955.56
2022-12-02T12:47:04.724Z,100954.38
2022-12-02T12:50:08.514Z,100958.56
2022-12-02T12:53:11.126Z,100960.25
2022-12-02T12:56:14.227Z,100959.63
2022-12-02T12:59:17.014Z,100953.41
2022-12-02T13:02:20.025Z,100954.28
2022-12-02T13:05:23.938Z,100948.09
2022-12-02T13:08:29.494Z,100957.03
2022-12-02T13:11:32.134Z,100955.69
2022-12-02T13:14:35.224Z,100955.69
2022-12-02T13:17:37.836Z,100958.97
2022-12-02T13:20:40.808Z,100956.53
2022-12-02T13:23:43.410Z,100969.06
2022-12-02T13:26:46.434Z,100961.12
2022-12-02T13:29:49.966Z,100966.50
2022-12-02T13:32:53.268Z,100970.34
2022-12-02T13:35:56.102Z,100964.56
2022-12-02T13:39:04.444Z,100968.72
2022-12-02T13:42:10.094Z,100976.09
2022-12-02T13:45:13.626Z,100967.69
2022-12-02T13:48:16.303Z,100969.09
2022-12-02T13:51:19.297Z,100969.34
2022-12-02T13:54:21.891Z,100978.72
2022-12-02T13:57:24.990Z,100976.31
2022-12-02T14:00:27.617Z,100976.81
2022-12-02T14:03:30.618Z,100988.75
2022-12-02T14:06:33.590Z,100977.25
2022-12-02T14:09:36.646Z,100971.22
2022-12-02T14:12:39.184Z,100977.78
2022-12-02T14:15:42.288Z,100976.75
2022-12-02T14:18:45.250Z,100984.47
2022-12-02T14:21:48.133Z,100982.00
2022-12-02T14:24:52.256Z,100994.88
2022-12-02T14:27:55.533Z,100986.59
2022-12-02T14:30:58.419Z,100981.94
2022-12-02T14:34:16.708Z,100984.47
2022-12-02T14:37:19.391Z,100990.22
2022-12-02T14:40:22.584Z,100973.59
2022-12-02T14:43:25.190Z,100981.94
2022-12-02T14:46:30.956Z,100974.94
2022-12-02T14:49:41.751Z,100979.06
2022-12-02T14:52:44.940Z,100967.72
2022-12-02T14:55:48.152Z,100971.72
2022-12-02T14:58:51.136Z,100982.59
2022-12-02T15:01:53.865Z,100983.84
2022-12-02T15:04:58.136Z,100987.19
2022-12-02T15:08:00.881Z,100997.59
2022-12-02T15:11:04.259Z,101004.25
2022-12-02T15:14:06.863Z,101003.69
2022-12-02T15:17:09.848Z,101013.72
2022-12-02T15:20:13.058Z,101011.00
2022-12-02T15:23:15.966Z,101016.09
2022-12-02T15:26:19.137Z,101014.97
2022-12-02T15:29:22.334Z,101011.56
2022-12-02T15:32:25.277Z,101009.09
2022-12-02T15:35:28.517Z,101011.84
2022-12-02T15:38:33.134Z,101012.50
2022-12-02T15:41:36.845Z,101017.13
2022-12-02T15:44:39.899Z,101017.31
2022-12-02T15:47:42.927Z,101017.75
2022-12-02T15:50:50.321Z,101016.37
2022-12-02T15:53:57.220Z,101022.22
2022-12-02T15:57:00.296Z,101020.50
2022-12-02T16:00:06.501Z,101024.38
2022-12-02T16:03:10.888Z,101027.03
2022-12-02T16:06:13.608Z,101030.69
2022-12-02T16:09:17.967Z,101033.22
2022-12-02T16:12:20.893Z,101031.75
2022-12-02T16:15:24.030Z,101031.38
2022-12-02T16:18:27.337Z,101028.94
2022-12-02T16:21:30.763Z,101032.22
2022-12-02T16:24:33.876Z,101029.09
2022-12-02T16:27:36.927Z,101032.22
2022-12-02T16:30:40.511Z,101033.31
2022-12-02T16:33:46.832Z,101040.94
2022-12-02T16:36:50.714Z,101035.88
2022-12-02T16:39:54.042Z,101041.56
2022-12-02T16:42:56.752Z,101031.72
2022-12-02T16:46:00.599Z,101042.38
2022-12-02T16:49:05.437Z,101041.78
2022-12-02T16:52:08.279Z,101036.19
2022-12-02T16:55:11.239Z,101036.28
2022-12-02T16:58:14.183Z,101038.31
2022-12-02T17:01:17.250Z,101048.06
2022-12-02T17:04:20.291Z,101054.16
2022-12-02T17:07:23.052Z,101050.00
2022-12-02T17:10:26.113Z,101041.56
2022-12-02T17:13:29.038Z,101052.75
2022-12-02T17:16:32.522Z,101047.19
2022-12-02T17:19:35.183Z,101046.87
2022-12-02T17:22:38.652Z,101051.72
2022-12-02T17:25:41.316Z,101048.59
2022-12-02T17:28:45.873Z,101047.09
2022-12-02T17:31:48.644Z,101041.06
2022-12-02T17:34:52.174Z,101056.41
2022-12-02T17:37:56.958Z,101048.31
2022-12-02T17:41:12.412Z,101052.88
2022-12-02T17:44:16.901Z,101052.66
2022-12-02T17:47:20.063Z,101052.97
2022-12-02T17:50:22.843Z,101060.16
2022-12-02T17:53:25.859Z,101057.03
2022-12-02T17:56:28.931Z,101062.31
2022-12-02T17:59:32.788Z,101065.75
2022-12-02T18:02:36.276Z,101060.37
2022-12-02T18:05:42.168Z,101062.72
2022-12-02T18:08:48.208Z,101059.47
2022-12-02T18:11:51.180Z,101063.34
2022-12-02T18:14:54.511Z,101053.69
2022-12-02T18:17:57.861Z,101061.09
2022-12-02T18:21:00.960Z,101052.97
2022-12-02T18:24:04.138Z,101059.38
2022-12-02T18:27:07.054Z,101055.91
2022-12-02T18:30:16.933Z,101051.34
2022-12-02T18:33:20.179Z,101051.44
2022-12-02T18:36:23.493Z,101042.00
2022-12-02T18:39:26.129Z,101038.94
2022-12-02T18:42:29.487Z,101044.63
2022-12-02T18:45:32.181Z,101041.78
2022-12-02T18:48:35.577Z,101050.81
2022-12-02T18:51:38.654Z,101049.00
2022-12-02T18:54:44.961Z,101044.72
2022-12-02T18:57:50.300Z,101041.06
2022-12-02T19:00:53.667Z,101050.31
2022-12-02T19:03:56.881Z,101043.00
2022-12-02T19:07:00.341Z,101050.13
2022-12-02T19:10:05.352Z,101059.03
2022-12-02T19:13:08.936Z,101057.41
2022-12-02T19:16:12.054Z,101054.00
2022-12-02T19:19:15.526Z,101055.78
2022-12-02T19:22:19.660Z,101049.09
2022-12-02T19:25:29.095Z,101058.03
2022-12-02T19:28:34.359Z,101055.31
2022-12-02T19:31:43.884Z,101055.59
2022-12-02T19:34:47.296Z,101046.34
2022-12-02T19:37:54.736Z,101048.91
2022-12-02T19:41:02.295Z,101047.66
2022-12-02T19:44:05.925Z,101049.81
2022-12-02T19:47:11.269Z,101045.88
2022-12-02T19:50:16.210Z,101051.25
2022-12-02T19:53:21.207Z,101058.25
2022-12-02T19:56:27.723Z,101061.78
2022-12-02T19:59:30.835Z,101058.06
2022-12-02T20:02:34.452Z,101066.97
2022-12-02T20:05:37.965Z,101069.62
2022-12-02T20:08:41.105Z,101074.91
2022-12-02T20:11:49.484Z,101066.97
2022-12-02T20:14:52.631Z,101076.03
2022-12-02T20:17:56.100Z,101078.25
2022-12-02T20:20:59.669Z,101081.22
2022-12-02T20:24:04.183Z,101080.69
2022-12-02T20:27:07.531Z,101076.31
2022-12-02T20:30:11.268Z,101079.78
2022-12-02T20:33:14.381Z,101088.50
2022-12-02T20:36:17.352Z,101093.97
2022-12-02T20:39:20.473Z,101095.59
2022-12-02T20:42:23.892Z,101089.81
2022-12-02T20:45:27.231Z,101088.47
2022-12-02T20:48:30.178Z,101086.53
2022-12-02T20:51:33.230Z,101079.53
2022-12-02T20:54:36.628Z,101078.31
2022-12-02T20:57:39.828Z,101083.59
2022-12-02T21:00:51.422Z,101082.78
2022-12-02T21:03:54.511Z,101088.00
2022-12-02T21:06:57.771Z,101092.16
2022-12-02T21:10:02.272Z,101079.16
2022-12-02T21:13:06.361Z,101096.31
2022-12-02T21:16:09.273Z,101079.56
2022-12-02T21:19:15.167Z,101078.66
2022-12-02T21:22:18.168Z,101086.78
2022-12-02T21:25:21.423Z,101088.00
2022-12-02T21:28:24.340Z,101094.37
2022-12-02T21:31:27.399Z,101090.53
2022-12-02T21:34:30.027Z,101086.78
2022-12-02T21:37:32.929Z,101093.16
2022-12-02T21:40:35.629Z,101092.88
2022-12-02T21:43:38.493Z,101097.97
2022-12-02T21:46:41.126Z,101096.62
2022-12-02T21:49:48.919Z,101110.53
2022-12-02T21:52:51.888Z,101103.34
2022-12-02T21:55:54.860Z,101091.13
2022-12-02T21:58:57.449Z,101095.00
2022-12-02T22:02:00.633Z,101095.91
2022-12-02T22:05:03.676Z,101095.91
2022-12-02T22:08:06.765Z,101103.12
2022-12-02T22:11:09.753Z,101104.47
2022-12-02T22:14:13.464Z,101094.00
2022-12-02T22:17:16.305Z,101108.09
2022-12-02T22:20:19.502Z,101102.91
2022-12-02T22:23:23.897Z,101105.66
2022-12-02T22:26:26.491Z,101096.91
2022-12-02T22:29:29.340Z,101101.69
2022-12-02T22:32:31.833Z,101095.00
2022-12-02T22:35:34.769Z,101096.19
2022-12-02T22:38:37.383Z,101109.78
2022-12-02T22:41:40.281Z,101100.34
2022-12-02T22:44:42.943Z,101100.84
2022-12-02T22:47:45.907Z,101102.25
2022-12-02T22:50:48.498Z,101102.66
2022-12-02T22:53:51.353Z,101096.34
2022-12-02T22:56:53.946Z,101097.38
2022-12-02T22:59:56.830Z,101101.66
2022-12-02T23:02:59.558Z,101097.38
2022-12-02T23:06:02.453Z,101096.56
2022-12-02T23:09:05.074Z,101101.56
2022-12-02T23:12:08.036Z,101105.41
2022-12-02T23:15:35.373Z,101103.97
2022-12-02T23:18:33.612Z,101102.91
2022-12-02T23:21:36.309Z,101102.16
2022-12-02T23:24:39.130Z,101100.28
2022-12-02T23:27:41.710Z,101102.47
2022-12-02T23:30:44.591Z,101104.09
2022-12-02T23:33:47.283Z,101113.66
2022-12-02T23:36:50.562Z,101106.16
2022-12-02T23:39:53.204Z,101107.19
2022-12-02T23:42:56.143Z,101114.09
2022-12-02T23:45:58.696Z,101113.16
2022-12-02T23:49:01.701Z,101116.09
2022-12-02T23:52:04.407Z,101110.59
2022-12-02T23:55:07.997Z,101116.50
2022-12-02T23:58:10.582Z,101121.78
